Time;durP1;ratioP1;P1;durP2;ratioP2;P2;SDS_P1;SDS_P2;PMS_P1;PMS_P2;Temp;Humidity;BMP_temperature;BMP_pressure;BME280_temperature;BME280_humidity;BME280_pressure;Samples;Min_cycle;Max_cycle;Signal;HPM_P1;HPM_P2
2021/05/12 00:00:54;;;;;;;8.30;2.75;;;19.30;75.10;;;;;;4976678;28;20014;-80
2021/05/12 00:03:20;;;;;;;5.57;2.70;;;19.20;75.80;;;;;;4976985;28;20050;-78
2021/05/12 00:05:46;;;;;;;9.07;2.83;;;19.10;75.20;;;;;;4977292;28;20023;-76
2021/05/12 00:08:12;;;;;;;4.63;2.60;;;19.10;76.30;;;;;;4976951;28;20485;-79
2021/05/12 00:10:38;;;;;;;4.80;2.38;;;19.10;75.90;;;;;;4976674;28;20050;-79
2021/05/12 00:13:04;;;;;;;4.43;2.25;;;19.00;75.80;;;;;;4976458;28;20042;-79
2021/05/12 00:15:30;;;;;;;5.88;2.70;;;18.90;76.60;;;;;;4975974;28;20015;-75
2021/05/12 00:17:56;;;;;;;5.72;2.67;;;18.90;77.10;;;;;;4976849;28;20069;-75
2021/05/12 00:20:26;;;;;;;4.50;2.42;;;18.80;77.50;;;;;;4976122;28;20019;-79
2021/05/12 00:23:14;;;;;;;4.53;2.58;;;18.90;77.90;;;;;;4958626;28;20035;-80
2021/05/12 00:25:40;;;;;;;4.68;2.80;;;18.90;77.60;;;;;;4976349;28;20038;-79
2021/05/12 00:28:06;;;;;;;3.85;2.20;;;18.80;77.40;;;;;;4976142;28;20355;-79
2021/05/12 00:30:32;;;;;;;5.18;2.33;;;18.90;77.20;;;;;;4975669;28;20089;-75
2021/05/12 00:32:58;;;;;;;6.18;2.60;;;18.80;77.30;;;;;;4975773;28;20029;-75
2021/05/12 00:35:25;;;;;;;9.60;3.90;;;18.80;77.60;;;;;;4977318;28;20366;-80
2021/05/12 00:37:51;;;;;;;11.52;4.57;;;18.60;77.50;;;;;;4976237;28;20019;-80
2021/05/12 00:40:18;;;;;;;13.75;7.05;;;18.60;78.50;;;;;;4975686;28;20019;-76
2021/05/12 00:42:44;;;;;;;18.67;8.48;;;18.50;78.00;;;;;;4975877;28;20398;-80
2021/05/12 00:45:13;;;;;;;11.30;7.15;;;18.50;78.20;;;;;;4975938;28;20435;-80
2021/05/12 00:47:39;;;;;;;11.88;4.55;;;18.50;79.30;;;;;;4975405;28;20023;-77
2021/05/12 00:50:06;;;;;;;9.57;4.43;;;18.50;77.80;;;;;;4975485;28;20912;-75
2021/05/12 00:52:32;;;;;;;9.10;5.18;;;18.50;78.80;;;;;;4975651;28;20032;-75
2021/05/12 00:54:58;;;;;;;14.27;7.78;;;18.60;77.80;;;;;;4975156;28;20059;-80
2021/05/12 00:57:24;;;;;;;16.38;7.80;;;18.60;76.50;;;;;;4958553;28;20046;-79
2021/05/12 00:59:52;;;;;;;10.95;4.80;;;18.50;76.20;;;;;;4975438;28;20030;-79
2021/05/12 01:02:19;;;;;;;7.03;4.40;;;18.60;76.90;;;;;;4958437;28;20121;-75
2021/05/12 01:04:45;;;;;;;10.23;3.83;;;18.50;77.20;;;;;;4975659;28;20027;-75
2021/05/12 01:07:11;;;;;;;10.05;3.50;;;18.50;76.50;;;;;;4975524;28;20042;-80
2021/05/12 01:09:38;;;;;;;5.60;3.00;;;18.50;75.70;;;;;;4957745;28;20114;-76
2021/05/12 01:12:04;;;;;;;8.10;3.03;;;18.50;76.10;;;;;;4976040;28;20050;-80
2021/05/12 01:14:30;;;;;;;7.60;4.25;;;18.60;75.80;;;;;;4975833;28;20050;-76
2021/05/12 01:16:57;;;;;;;8.98;4.90;;;18.60;77.60;;;;;;4975417;28;20411;-80
2021/05/12 01:19:23;;;;;;;7.68;3.80;;;18.60;77.40;;;;;;4975344;28;20051;-76
2021/05/12 01:21:50;;;;;;;9.55;4.30;;;18.50;78.20;;;;;;4958354;28;20033;-80
2021/05/12 01:24:16;;;;;;;10.90;4.85;;;18.30;80.10;;;;;;4958144;28;20033;-81
2021/05/12 01:26:42;;;;;;;14.25;6.80;;;18.30;79.50;;;;;;4958085;28;20106;-76
2021/05/12 01:29:08;;;;;;;13.48;9.00;;;18.10;80.10;;;;;;4975120;28;20030;-81
2021/05/12 01:31:43;;;;;;;13.38;8.70;;;18.10;80.70;;;;;;4958028;28;20056;-81
2021/05/12 01:34:17;;;;;;;12.45;6.88;;;18.10;81.50;;;;;;4975475;28;20023;-78
2021/05/12 01:36:45;;;;;;;10.02;4.00;;;18.00;82.40;;;;;;4957972;28;20027;-80
2021/05/12 01:39:12;;;;;;;6.25;3.40;;;17.90;80.90;;;;;;4976019;28;20023;-80
2021/05/12 01:41:39;;;;;;;9.68;3.25;;;17.70;80.70;;;;;;4976174;28;20370;-79
2021/05/12 01:44:11;;;;;;;6.95;3.22;;;17.80;80.50;;;;;;4975208;28;20031;-75
2021/05/12 01:46:39;;;;;;;10.02;3.28;;;17.80;81.70;;;;;;4975201;28;20096;-75
2021/05/12 01:49:05;;;;;;;8.43;2.90;;;17.80;82.10;;;;;;4957655;28;20106;-79
2021/05/12 01:51:32;;;;;;;5.50;3.20;;;17.80;81.80;;;;;;4975015;28;20023;-80
2021/05/12 01:53:58;;;;;;;5.97;2.90;;;17.80;81.60;;;;;;4974442;28;20043;-75
2021/05/12 01:56:25;;;;;;;6.55;3.08;;;17.80;82.50;;;;;;4974493;28;20019;-80
2021/05/12 01:58:51;;;;;;;6.47;3.00;;;17.70;82.30;;;;;;4957314;28;20027;-82
2021/05/12 02:01:17;;;;;;;5.22;3.30;;;17.70;81.60;;;;;;4957872;28;20107;-79
2021/05/12 02:03:43;;;;;;;9.55;3.35;;;17.70;82.90;;;;;;4974772;28;20023;-75
2021/05/12 02:06:09;;;;;;;8.98;3.10;;;17.60;83.30;;;;;;4974608;28;20497;-75
2021/05/12 02:08:35;;;;;;;6.05;3.35;;;17.60;83.80;;;;;;4974716;28;20030;-81
2021/05/12 02:11:04;;;;;;;7.15;3.30;;;17.40;83.30;;;;;;4957125;28;20042;-80
2021/05/12 02:13:31;;;;;;;8.77;3.33;;;17.50;83.80;;;;;;4974834;28;20058;-80
2021/05/12 02:15:59;;;;;;;7.35;3.33;;;17.50;83.90;;;;;;4974469;28;20417;-80
2021/05/12 02:18:25;;;;;;;8.20;3.20;;;17.50;83.80;;;;;;4957381;28;20081;-80
2021/05/12 02:20:51;;;;;;;7.05;3.40;;;17.50;84.10;;;;;;4977376;28;20030;-80
2021/05/12 02:23:19;;;;;;;7.18;3.78;;;17.40;86.20;;;;;;4978685;28;20055;-75
2021/05/12 02:25:45;;;;;;;6.40;3.90;;;17.30;86.50;;;;;;4979183;28;20027;-76
2021/05/12 02:28:11;;;;;;;7.78;3.80;;;17.30;87.40;;;;;;4978167;28;20087;-76
2021/05/12 02:30:39;;;;;;;7.75;3.75;;;17.30;88.70;;;;;;4979145;28;20027;-75
2021/05/12 02:33:06;;;;;;;7.28;3.55;;;17.30;86.30;;;;;;4978160;28;20031;-76
2021/05/12 02:35:33;;;;;;;6.93;3.55;;;17.30;86.70;;;;;;4978270;28;20022;-81
2021/05/12 02:37:59;;;;;;;7.93;4.10;;;17.30;87.60;;;;;;4978324;28;20019;-75
2021/05/12 02:40:25;;;;;;;9.50;4.20;;;17.20;88.30;;;;;;4977882;28;20023;-81
2021/05/12 02:42:54;;;;;;;6.93;4.60;;;16.90;88.70;;;;;;4978320;28;20101;-81
2021/05/12 02:45:20;;;;;;;8.40;4.55;;;17.00;90.20;;;;;;4977544;28;20047;-79
2021/05/12 02:47:57;;;;;;;8.48;4.80;;;16.90;90.30;;;;;;4961083;28;20065;-76
2021/05/12 02:50:31;;;;;;;7.13;4.90;;;16.90;90.30;;;;;;4978390;28;20125;-80
2021/05/12 02:52:59;;;;;;;7.85;4.50;;;16.80;90.60;;;;;;4978509;28;20046;-75
2021/05/12 02:55:26;;;;;;;10.68;5.10;;;16.80;90.80;;;;;;4978054;28;20027;-80
2021/05/12 02:57:53;;;;;;;9.48;4.90;;;16.70;91.60;;;;;;4960071;28;20018;-81
2021/05/12 03:00:22;;;;;;;10.55;4.72;;;16.70;91.70;;;;;;4960715;28;20033;-80
2021/05/12 03:02:49;;;;;;;6.38;4.13;;;16.70;92.20;;;;;;4977327;28;20085;-76
2021/05/12 03:05:15;;;;;;;9.95;4.88;;;16.70;91.70;;;;;;4977582;28;20074;-76
2021/05/12 03:07:41;;;;;;;6.63;4.43;;;16.80;91.90;;;;;;4977458;28;20026;-74
2021/05/12 03:10:11;;;;;;;9.50;5.22;;;16.80;92.10;;;;;;4977444;28;20027;-81
2021/05/12 03:12:37;;;;;;;7.68;4.53;;;16.70;92.70;;;;;;4960167;28;20488;-75
2021/05/12 03:15:06;;;;;;;11.20;4.82;;;16.50;92.50;;;;;;4977152;28;20057;-75
2021/05/12 03:17:31;;;;;;;8.63;5.10;;;16.50;92.90;;;;;;4977399;28;20469;-75
2021/05/12 03:19:57;;;;;;;9.20;5.55;;;16.40;92.90;;;;;;4977427;28;20027;-80
2021/05/12 03:22:23;;;;;;;12.05;5.93;;;16.30;93.30;;;;;;4976921;28;20058;-81
2021/05/12 03:24:50;;;;;;;11.32;6.32;;;16.40;93.50;;;;;;4977871;28;20037;-75
2021/05/12 03:27:16;;;;;;;11.63;6.50;;;16.30;93.40;;;;;;4977055;28;20089;-80
2021/05/12 03:29:42;;;;;;;10.93;6.35;;;16.30;93.60;;;;;;4976962;28;20358;-75
2021/05/12 03:32:08;;;;;;;9.82;6.45;;;16.20;93.70;;;;;;4976530;28;20026;-80
2021/05/12 03:34:34;;;;;;;11.77;6.15;;;16.30;93.70;;;;;;4976459;28;20057;-76
2021/05/12 03:37:00;;;;;;;10.98;6.45;;;16.40;94.20;;;;;;4976849;28;20019;-80
2021/05/12 03:39:26;;;;;;;11.30;6.10;;;16.40;93.80;;;;;;4977326;28;20471;-76
2021/05/12 03:41:52;;;;;;;9.15;5.85;;;16.30;94.10;;;;;;4977177;28;20015;-75
2021/05/12 03:44:18;;;;;;;10.65;6.05;;;16.30;94.40;;;;;;4976575;28;20019;-75
2021/05/12 03:46:44;;;;;;;11.00;5.80;;;16.20;94.40;;;;;;4977352;28;20019;-75
2021/05/12 03:49:09;;;;;;;10.63;5.70;;;16.30;94.30;;;;;;4976633;28;20034;-79
2021/05/12 03:51:35;;;;;;;9.52;6.53;;;16.40;94.30;;;;;;4976758;28;20516;-79
2021/05/12 03:54:02;;;;;;;12.48;6.30;;;16.30;94.50;;;;;;4977071;28;20054;-79
2021/05/12 03:56:27;;;;;;;11.27;5.97;;;16.40;94.70;;;;;;4977043;28;20490;-75
2021/05/12 03:58:53;;;;;;;11.10;5.32;;;16.30;95.00;;;;;;4976422;28;20073;-75
2021/05/12 04:01:19;;;;;;;11.80;5.45;;;16.00;95.20;;;;;;4976572;28;20078;-75
2021/05/12 04:03:46;;;;;;;11.25;4.97;;;16.20;95.20;;;;;;4976738;28;20058;-75
2021/05/12 04:06:12;;;;;;;8.98;4.95;;;16.50;95.10;;;;;;4976905;28;20023;-74
2021/05/12 04:08:38;;;;;;;9.35;4.95;;;16.60;94.50;;;;;;4976698;28;20054;-80
2021/05/12 04:11:04;;;;;;;10.05;5.85;;;16.80;93.90;;;;;;4976787;28;20049;-81
2021/05/12 04:13:30;;;;;;;10.45;5.38;;;16.80;94.30;;;;;;4976595;28;20500;-75
2021/05/12 04:15:56;;;;;;;8.07;5.68;;;16.70;94.30;;;;;;4976305;28;20046;-81
2021/05/12 04:18:22;;;;;;;9.23;5.60;;;16.50;94.90;;;;;;4976858;28;20027;-81
2021/05/12 04:20:48;;;;;;;11.20;6.00;;;16.30;95.20;;;;;;4958732;28;20058;-76
2021/05/12 04:23:13;;;;;;;13.75;6.82;;;16.50;95.20;;;;;;4977104;28;20025;-81
2021/05/12 04:25:39;;;;;;;12.05;5.20;;;16.50;94.90;;;;;;4976688;28;20396;-75
2021/05/12 04:28:06;;;;;;;13.00;5.95;;;16.80;94.20;;;;;;4958540;28;20035;-80
2021/05/12 04:30:32;;;;;;;12.40;5.82;;;16.80;94.40;;;;;;4976313;28;20019;-75
2021/05/12 04:33:00;;;;;;;13.52;6.70;;;16.90;94.40;;;;;;4976218;28;20026;-80
2021/05/12 04:35:27;;;;;;;10.70;5.88;;;16.80;94.20;;;;;;4975122;28;20035;-81
2021/05/12 04:37:53;;;;;;;9.70;5.97;;;17.10;93.80;;;;;;4976531;28;20058;-80
2021/05/12 04:40:20;;;;;;;9.68;5.22;;;17.10;93.80;;;;;;4975658;28;20050;-75
2021/05/12 04:42:47;;;;;;;6.53;4.97;;;17.50;93.30;;;;;;4975927;28;20041;-80
2021/05/12 04:45:15;;;;;;;10.95;5.65;;;17.70;93.10;;;;;;4974913;28;20027;-81
2021/05/12 04:47:41;;;;;;;9.43;5.30;;;17.90;93.80;;;;;;4975369;28;20034;-78
2021/05/12 04:50:09;;;;;;;8.73;5.55;;;17.90;93.50;;;;;;4958581;28;20097;-75
2021/05/12 04:52:35;;;;;;;9.18;5.30;;;18.00;93.10;;;;;;4975546;28;20059;-75
2021/05/12 04:55:01;;;;;;;10.38;4.95;;;18.20;93.00;;;;;;4957822;28;20047;-78
2021/05/12 04:57:27;;;;;;;9.35;4.45;;;18.20;93.10;;;;;;4975961;28;20019;-75
2021/05/12 04:59:53;;;;;;;8.18;5.03;;;18.40;92.10;;;;;;4975645;28;20019;-79
2021/05/12 05:02:19;;;;;;;9.07;5.10;;;18.60;91.90;;;;;;4975420;28;20030;-75
2021/05/12 05:04:44;;;;;;;8.05;5.45;;;18.70;92.60;;;;;;4975363;28;20027;-75
2021/05/12 05:07:10;;;;;;;8.63;5.50;;;18.80;93.40;;;;;;4975601;28;20500;-76
2021/05/12 05:09:36;;;;;;;10.23;5.45;;;18.70;93.40;;;;;;4958414;28;20037;-75
2021/05/12 05:12:02;;;;;;;9.00;5.90;;;18.80;92.30;;;;;;4975649;28;20018;-73
2021/05/12 05:14:28;;;;;;;8.77;5.47;;;18.80;92.20;;;;;;4975459;28;20030;-73
2021/05/12 05:16:54;;;;;;;10.43;5.70;;;18.90;92.00;;;;;;4976173;28;20027;-74
2021/05/12 05:19:21;;;;;;;9.43;4.90;;;19.00;92.20;;;;;;4976281;28;20503;-76
2021/05/12 05:21:50;;;;;;;6.47;4.40;;;19.00;91.80;;;;;;4975575;28;20520;-74
2021/05/12 05:24:16;;;;;;;10.43;4.35;;;19.10;92.00;;;;;;4974375;28;20027;-73
2021/05/12 05:26:42;;;;;;;10.73;4.07;;;18.90;92.00;;;;;;4976632;28;20070;-77
2021/05/12 05:29:08;;;;;;;10.10;4.05;;;18.60;91.60;;;;;;4977194;28;20173;-73
2021/05/12 05:31:33;;;;;;;8.07;4.28;;;18.40;92.70;;;;;;4975983;28;20109;-75
2021/05/12 05:33:59;;;;;;;10.73;5.68;;;18.20;92.60;;;;;;4977123;28;20543;-72
2021/05/12 05:36:25;;;;;;;8.85;4.40;;;18.20;93.30;;;;;;4976487;28;20034;-75
2021/05/12 05:38:51;;;;;;;8.48;4.63;;;18.30;92.70;;;;;;4976517;28;20098;-74
2021/05/12 05:41:17;;;;;;;11.90;5.60;;;18.20;92.50;;;;;;4958978;28;20019;-73
2021/05/12 05:43:43;;;;;;;14.15;6.10;;;18.00;93.50;;;;;;4975248;28;20054;-73
2021/05/12 05:46:09;;;;;;;12.55;5.88;;;18.00;93.70;;;;;;4974591;28;20078;-73
2021/05/12 05:48:35;;;;;;;11.77;6.22;;;17.80;94.00;;;;;;4976084;28;20050;-73
2021/05/12 05:51:01;;;;;;;13.65;6.32;;;17.80;94.10;;;;;;4958139;28;20077;-72
2021/05/12 05:53:27;;;;;;;11.75;5.80;;;17.90;94.30;;;;;;4974908;28;20054;-72
2021/05/12 05:55:53;;;;;;;9.85;6.90;;;17.60;94.50;;;;;;4961462;28;20385;-76
2021/05/12 05:58:19;;;;;;;11.20;6.30;;;17.60;94.90;;;;;;4977994;28;20027;-75
2021/05/12 06:00:46;;;;;;;9.55;5.47;;;17.80;94.90;;;;;;4979031;28;20494;-70
2021/05/12 06:03:12;;;;;;;9.07;5.95;;;17.80;94.60;;;;;;4980999;28;20019;-70
2021/05/12 06:05:38;;;;;;;10.05;5.47;;;17.80;95.40;;;;;;4962762;28;20362;-71
2021/05/12 06:08:04;;;;;;;9.23;5.53;;;18.00;94.60;;;;;;4980197;28;20385;-71
2021/05/12 06:10:30;;;;;;;12.88;5.40;;;18.20;93.80;;;;;;4980786;28;20050;-72
2021/05/12 06:12:56;;;;;;;9.52;5.40;;;18.50;94.40;;;;;;4979887;28;20031;-68
2021/05/12 06:15:22;;;;;;;8.40;5.47;;;18.40;93.00;;;;;;4961550;28;20047;-69
2021/05/12 06:17:48;;;;;;;12.82;5.80;;;18.50;93.40;;;;;;4979619;28;20050;-70
2021/05/12 06:20:15;;;;;;;13.88;6.43;;;18.60;93.80;;;;;;4980872;28;20034;-68
2021/05/12 06:22:42;;;;;;;8.50;5.25;;;18.60;93.10;;;;;;4971513;28;20023;-70
2021/05/12 06:25:10;;;;;;;8.90;5.10;;;18.70;93.70;;;;;;4966487;28;20023;-70
2021/05/12 06:27:40;;;;;;;10.02;5.68;;;18.70;93.00;;;;;;4966409;28;20067;-68
2021/05/12 06:30:08;;;;;;;9.13;5.60;;;18.50;93.40;;;;;;4958649;29;20026;-69
2021/05/12 06:32:33;;;;;;;11.27;5.78;;;18.50;94.30;;;;;;4958420;29;20020;-70
2021/05/12 06:34:59;;;;;;;14.55;6.90;;;18.60;94.20;;;;;;4958923;29;20482;-69
2021/05/12 06:37:25;;;;;;;14.88;6.25;;;18.40;93.90;;;;;;4958838;29;20027;-68
2021/05/12 06:39:51;;;;;;;9.77;5.70;;;18.50;94.20;;;;;;4958654;29;20425;-69
2021/05/12 06:42:18;;;;;;;12.13;7.35;;;18.40;94.20;;;;;;4959953;29;20031;-70
2021/05/12 06:44:44;;;;;;;11.63;6.72;;;18.60;94.50;;;;;;4961403;29;20083;-68
2021/05/12 06:47:09;;;;;;;12.18;6.18;;;18.90;94.60;;;;;;4961316;29;20023;-70
2021/05/12 06:49:35;;;;;;;11.50;6.03;;;19.00;94.40;;;;;;4962336;29;20030;-69
2021/05/12 06:52:02;;;;;;;9.30;5.47;;;19.20;92.90;;;;;;4960989;29;20051;-70
2021/05/12 06:54:28;;;;;;;9.18;5.10;;;19.40;93.10;;;;;;4960661;29;20086;-70
2021/05/12 06:56:54;;;;;;;9.88;4.90;;;19.40;92.10;;;;;;4961211;29;20023;-69
2021/05/12 06:59:19;;;;;;;9.02;4.75;;;19.30;91.30;;;;;;4959635;29;20027;-70
2021/05/12 07:01:45;;;;;;;7.15;5.00;;;19.50;91.60;;;;;;4942064;29;20482;-71
2021/05/12 07:04:11;;;;;;;9.23;5.72;;;19.60;91.50;;;;;;4959349;29;20019;-72
2021/05/12 07:06:37;;;;;;;9.63;4.75;;;19.50;91.40;;;;;;4957343;28;20031;-70
2021/05/12 07:09:03;;;;;;;11.07;5.28;;;19.80;91.00;;;;;;4959022;29;20019;-71
2021/05/12 07:11:29;;;;;;;10.40;5.07;;;20.00;90.80;;;;;;4959497;29;20027;-70
2021/05/12 07:13:55;;;;;;;15.25;5.80;;;20.20;90.00;;;;;;4941673;29;20489;-70
2021/05/12 07:16:21;;;;;;;14.63;5.88;;;20.20;90.60;;;;;;4957570;29;20027;-69
2021/05/12 07:18:47;;;;;;;12.93;5.38;;;20.50;90.30;;;;;;4957293;29;20042;-70
2021/05/12 07:21:13;;;;;;;8.93;4.95;;;20.50;88.70;;;;;;4962370;28;20034;-70
2021/05/12 07:23:42;;;;;;;12.18;5.88;;;20.60;89.60;;;;;;4961581;28;20031;-70
2021/05/12 07:26:09;;;;;;;9.77;5.20;;;21.10;90.60;;;;;;4959992;29;20027;-70
2021/05/12 07:28:35;;;;;;;9.43;5.40;;;21.40;87.70;;;;;;4961234;29;20023;-71
2021/05/12 07:31:01;;;;;;;9.07;5.55;;;21.60;86.00;;;;;;4943328;29;20019;-72
2021/05/12 07:33:27;;;;;;;11.20;4.75;;;21.60;83.60;;;;;;4960395;29;20024;-70
2021/05/12 07:35:53;;;;;;;9.88;4.93;;;22.00;83.70;;;;;;4960370;29;20023;-77
2021/05/12 07:38:19;;;;;;;9.38;5.28;;;22.30;83.40;;;;;;4960761;29;20046;-72
2021/05/12 07:40:45;;;;;;;11.25;5.22;;;22.00;83.70;;;;;;4958258;29;20069;-71
2021/05/12 07:43:12;;;;;;;10.05;4.50;;;21.90;87.00;;;;;;4960015;29;20425;-70
2021/05/12 07:45:39;;;;;;;8.90;4.60;;;22.00;83.40;;;;;;4959109;29;20495;-70
2021/05/12 07:48:13;;;;;;;10.13;5.55;;;22.00;83.40;;;;;;4959032;29;20043;-73
2021/05/12 07:50:40;;;;;;;;;;;22.10;83.40;;;;;;4961329;29;20028;-70
2021/05/12 07:53:07;;;;;;;11.27;4.75;;;22.10;83.80;;;;;;4958478;29;20329;-75
2021/05/12 07:55:35;;;;;;;10.93;4.70;;;22.20;84.30;;;;;;4959107;29;20038;-74
2021/05/12 07:58:02;;;;;;;10.40;4.68;;;22.20;85.30;;;;;;4959024;29;20023;-73
2021/05/12 08:00:31;;;;;;;6.93;4.00;;;22.30;83.60;;;;;;4958445;29;20489;-70
2021/05/12 08:02:57;;;;;;;9.25;4.20;;;22.30;82.60;;;;;;4957718;29;20030;-75
2021/05/12 08:05:23;;;;;;;8.10;4.32;;;22.40;83.10;;;;;;4958610;29;20055;-76
2021/05/12 08:07:49;;;;;;;7.47;4.38;;;22.60;84.20;;;;;;4957979;29;20469;-72
2021/05/12 08:10:15;;;;;;;9.90;4.40;;;22.80;82.90;;;;;;4957028;29;20067;-73
2021/05/12 08:12:41;;;;;;;11.75;4.30;;;23.10;81.70;;;;;;4957955;29;20026;-75
2021/05/12 08:15:07;;;;;;;8.13;4.75;;;;;;;;;;4958310;29;20521;-72
2021/05/12 08:17:34;;;;;;;10.13;5.05;;;23.70;78.40;;;;;;4942183;28;20086;-76
2021/05/12 08:20:01;;;;;;;7.97;3.40;;;24.00;75.70;;;;;;4957555;29;20402;-72
2021/05/12 08:22:27;;;;;;;9.38;3.65;;;24.30;76.30;;;;;;4958151;29;20023;-72
2021/05/12 08:24:53;;;;;;;8.63;3.95;;;24.70;77.30;;;;;;4958831;29;20023;-78
2021/05/12 08:27:19;;;;;;;9.18;4.22;;;24.80;75.10;;;;;;4958325;29;20027;-72
2021/05/12 08:29:46;;;;;;;6.38;3.58;;;24.50;73.60;;;;;;4956806;29;20480;-72
2021/05/12 08:32:14;;;;;;;9.40;3.38;;;24.40;73.80;;;;;;4965785;28;20356;-73
2021/05/12 08:34:41;;;;;;;9.50;3.67;;;24.20;75.30;;;;;;4964476;28;20053;-72
2021/05/12 08:37:07;;;;;;;6.95;3.60;;;23.90;74.30;;;;;;4974115;28;20405;-71
2021/05/12 08:39:34;;;;;;;7.70;4.00;;;23.90;76.20;;;;;;4976463;28;20466;-75
2021/05/12 08:42:00;;;;;;;7.28;3.72;;;23.80;76.50;;;;;;4977451;28;20030;-74
2021/05/12 08:44:27;;;;;;;11.32;4.15;;;23.90;76.80;;;;;;4976805;28;20469;-71
2021/05/12 08:46:53;;;;;;;11.50;4.70;;;23.90;76.50;;;;;;4980416;28;20019;-75
2021/05/12 08:49:20;;;;;;;7.47;4.60;;;23.80;76.20;;;;;;4978847;28;20473;-71
2021/05/12 08:51:46;;;;;;;6.97;3.65;;;23.80;76.90;;;;;;4979825;28;20070;-72
2021/05/12 08:54:14;;;;;;;5.70;3.80;;;23.50;74.00;;;;;;4977888;28;20061;-71
2021/05/12 08:56:40;;;;;;;9.95;4.40;;;23.50;75.70;;;;;;4978370;28;20015;-72
2021/05/12 08:59:07;;;;;;;9.75;4.22;;;23.60;76.10;;;;;;4978910;28;20504;-76
2021/05/12 09:01:33;;;;;;;7.93;3.53;;;23.50;74.80;;;;;;4977743;28;20030;-71
2021/05/12 09:04:03;;;;;;;6.32;3.83;;;23.40;74.90;;;;;;4978972;28;20030;-71
2021/05/12 09:06:32;;;;;;;9.50;4.07;;;23.20;74.70;;;;;;4976344;28;20030;-74
2021/05/12 09:08:59;;;;;;;10.07;4.00;;;23.30;76.20;;;;;;4976988;28;20034;-72
2021/05/12 09:11:25;;;;;;;10.13;4.30;;;23.20;75.90;;;;;;4975704;28;20556;-71
2021/05/12 09:13:51;;;;;;;8.98;3.83;;;23.30;77.00;;;;;;4978430;28;20033;-76
2021/05/12 09:16:22;;;;;;;9.23;3.90;;;23.20;76.40;;;;;;4961049;28;20030;-74
2021/05/12 09:18:49;;;;;;;8.88;3.47;;;23.10;78.20;;;;;;4977628;28;20031;-72
2021/05/12 09:21:16;;;;;;;14.63;4.82;;;23.10;77.50;;;;;;4977583;28;20033;-77
2021/05/12 09:23:43;;;;;;;8.68;3.83;;;23.00;78.80;;;;;;4977112;28;20026;-74
2021/05/12 09:26:16;;;;;;;10.65;4.45;;;22.90;78.80;;;;;;4976871;28;20019;-74
2021/05/12 09:28:43;;;;;;;55.58;49.67;;;22.80;78.90;;;;;;4976662;28;20031;-77
2021/05/12 09:31:15;;;;;;;9.70;4.50;;;22.90;80.10;;;;;;4975972;28;20023;-74
2021/05/12 09:33:47;;;;;;;9.57;4.57;;;22.50;80.20;;;;;;4976577;28;20073;-79
2021/05/12 09:36:29;;;;;;;9.40;4.07;;;22.30;78.90;;;;;;4976069;28;20045;-78
2021/05/12 09:38:56;;;;;;;10.93;4.35;;;22.30;81.40;;;;;;4975615;28;20503;-78
2021/05/12 09:41:33;;;;;;;9.93;4.47;;;22.10;81.80;;;;;;4974752;28;20042;-77
2021/05/12 09:44:00;;;;;;;9.15;3.92;;;22.00;82.90;;;;;;4974950;28;20038;-74
2021/05/12 09:46:31;;;;;;;9.00;4.82;;;22.10;82.00;;;;;;4975025;28;20049;-74
2021/05/12 09:49:00;;;;;;;9.32;3.97;;;22.10;82.50;;;;;;4974991;28;20027;-77
2021/05/12 09:51:28;;;;;;;10.48;3.80;;;22.10;82.20;;;;;;4957372;28;20073;-77
2021/05/12 09:54:13;;;;;;;10.30;4.70;;;22.10;84.20;;;;;;4974551;28;20046;-77
2021/05/12 09:56:45;;;;;;;10.90;4.50;;;22.20;83.50;;;;;;4974863;28;20039;-77
2021/05/12 09:59:18;;;;;;;6.78;4.00;;;22.40;83.80;;;;;;4974926;28;20050;-78
2021/05/12 10:01:49;;;;;;;7.20;3.78;;;22.50;82.80;;;;;;4974993;28;20023;-73
2021/05/12 10:04:39;;;;;;;8.93;3.50;;;22.50;81.20;;;;;;4975007;28;20085;-77
2021/05/12 10:07:32;;;;;;;10.63;3.75;;;22.50;82.00;;;;;;4958091;28;20035;-77
2021/05/12 10:09:58;;;;;;;9.35;3.40;;;22.60;81.90;;;;;;4970953;28;20102;-73
2021/05/12 10:12:31;;;;;;;10.18;3.70;;;22.70;82.90;;;;;;4975121;28;20047;-77
2021/05/12 10:14:59;;;;;;;11.73;4.07;;;22.80;81.90;;;;;;4975248;28;20084;-78
2021/05/12 10:17:27;;;;;;;7.65;4.07;;;22.60;82.90;;;;;;4974546;28;20019;-78
2021/05/12 10:19:55;;;;;;;11.52;4.05;;;22.70;82.60;;;;;;4974517;28;20462;-77
2021/05/12 10:22:22;;;;;;;7.43;3.55;;;22.60;83.60;;;;;;4974850;28;20615;-77
2021/05/12 10:24:49;;;;;;;8.90;3.60;;;22.60;83.50;;;;;;4974501;28;20377;-74
2021/05/12 10:27:35;;;;;;;9.48;3.75;;;22.60;84.20;;;;;;4974547;28;20082;-77
2021/05/12 10:30:04;;;;;;;8.18;3.10;;;22.70;82.80;;;;;;4974580;28;20031;-77
2021/05/12 10:32:34;;;;;;;5.72;2.85;;;22.60;82.30;;;;;;4974803;28;20498;-75
2021/05/12 10:35:08;;;;;;;8.50;3.65;;;23.00;82.40;;;;;;4957118;28;20034;-76
2021/05/12 10:37:40;;;;;;;9.50;3.63;;;23.10;83.40;;;;;;4956848;28;20037;-77
2021/05/12 10:40:29;;;;;;;10.35;3.35;;;23.20;83.10;;;;;;4974576;28;20027;-75
2021/05/12 10:43:22;;;;;;;6.30;3.45;;;23.20;81.60;;;;;;4976545;28;20029;-77
2021/05/12 10:48:37;;;;;;;6.78;3.72;;;23.20;83.50;;;;;;4978052;28;20512;-77
2021/05/12 10:51:21;;;;;;;8.40;3.80;;;23.50;82.10;;;;;;4978227;28;20019;-77
2021/05/12 10:53:49;;;;;;;9.27;3.75;;;23.30;81.70;;;;;;4957906;29;20107;-77
2021/05/12 10:56:17;;;;;;;10.35;3.78;;;23.20;83.70;;;;;;4958696;29;20031;-77
2021/05/12 10:58:57;;;;;;;8.35;3.70;;;23.30;83.80;;;;;;4958544;29;20027;-77
2021/05/12 11:01:25;;;;;;;7.85;3.78;;;23.10;81.90;;;;;;4958046;29;20381;-77
2021/05/12 11:06:18;;;;;;;8.65;3.85;;;23.00;85.30;;;;;;4959326;29;20042;-76
2021/05/12 11:09:06;;;;;;;7.20;3.60;;;22.90;83.40;;;;;;4958335;29;20031;-78
2021/05/12 11:11:33;;;;;;;8.77;3.85;;;22.80;84.90;;;;;;4958774;29;20031;-77
2021/05/12 11:14:22;;;;;;;11.27;3.30;;;22.50;87.90;;;;;;4960128;29;20067;-74
2021/05/12 11:17:08;;;;;;;6.82;2.70;;;22.30;89.00;;;;;;4959354;29;20019;-74
2021/05/12 11:19:44;;;;;;;6.45;2.83;;;21.80;90.20;;;;;;4957607;29;20028;-78
2021/05/12 11:22:43;;;;;;;4.57;2.33;;;21.90;90.40;;;;;;4959545;29;20027;-76
2021/05/12 11:25:21;;;;;;;6.60;1.95;;;21.80;88.90;;;;;;4959304;29;20459;-75
2021/05/12 11:33:21;;;;;;;4.28;1.50;;;22.00;83.80;;;;;;4959324;29;20029;-72
2021/05/12 11:35:51;;;;;;;6.45;1.70;;;21.50;84.70;;;;;;4958362;29;20030;-77
2021/05/12 11:38:18;;;;;;;3.83;1.40;;;21.60;85.10;;;;;;4961386;29;20035;-72
2021/05/12 11:41:07;;;;;;;5.50;1.60;;;21.80;85.50;;;;;;4958079;29;20031;-72
2021/05/12 11:43:37;;;;;;;3.05;1.33;;;21.60;83.20;;;;;;4957407;29;20087;-72
2021/05/12 11:46:11;;;;;;;3.53;1.30;;;21.40;83.70;;;;;;4957240;29;20076;-72
2021/05/12 11:48:51;;;;;;;3.45;1.13;;;21.00;83.10;;;;;;4957154;29;20042;-72
2021/05/12 11:51:37;;;;;;;4.63;1.30;;;20.80;84.30;;;;;;4957128;29;20043;-72
2021/05/12 11:54:05;;;;;;;5.43;1.35;;;20.80;84.40;;;;;;4955154;28;20406;-72
2021/05/12 11:56:32;;;;;;;3.53;1.70;;;21.00;84.40;;;;;;4956969;29;20024;-72
2021/05/12 11:59:04;;;;;;;3.97;1.67;;;21.00;84.80;;;;;;4956830;29;20055;-72
2021/05/12 12:01:33;;;;;;;4.05;1.42;;;20.70;86.40;;;;;;4956957;29;20071;-71
2021/05/12 12:06:43;;;;;;;2.92;1.27;;;20.50;88.40;;;;;;4956708;29;20027;-72
2021/05/12 12:09:09;;;;;;;3.10;1.50;;;20.40;89.10;;;;;;4956727;29;20038;-72
2021/05/12 12:11:35;;;;;;;4.15;1.52;;;20.20;89.20;;;;;;4956622;29;20046;-72
2021/05/12 12:14:02;;;;;;;3.05;2.08;;;20.10;90.10;;;;;;4955960;29;20118;-74
2021/05/12 12:16:28;;;;;;;3.00;1.70;;;20.00;90.60;;;;;;4964528;29;20023;-75
2021/05/12 12:18:55;;;;;;;4.18;1.75;;;19.70;90.50;;;;;;4964438;29;20022;-75
2021/05/12 12:21:29;;;;;;;5.10;1.90;;;19.70;90.70;;;;;;4958260;29;20016;-75
2021/05/12 12:23:55;;;;;;;4.25;1.88;;;19.40;91.20;;;;;;4961634;29;20375;-73
2021/05/12 12:26:23;;;;;;;3.58;1.58;;;19.70;91.30;;;;;;4961179;29;20026;-73
2021/05/12 12:28:54;;;;;;;4.78;1.67;;;19.50;90.60;;;;;;4961221;29;20027;-77
2021/05/12 12:31:25;;;;;;;6.00;1.80;;;19.40;90.40;;;;;;4962015;29;20035;-75
2021/05/12 12:34:14;;;;;;;6.65;1.80;;;19.20;90.90;;;;;;4958513;29;20460;-77
2021/05/12 12:36:54;;;;;;;4.90;1.60;;;19.10;91.20;;;;;;4957862;29;20054;-73
2021/05/12 12:39:35;;;;;;;4.80;1.73;;;19.10;91.60;;;;;;4958956;29;20029;-72
2021/05/12 12:42:01;;;;;;;7.10;1.77;;;19.00;91.90;;;;;;4960344;29;20063;-77
2021/05/12 12:44:39;;;;;;;6.07;1.63;;;18.90;92.40;;;;;;4963124;29;20500;-77
2021/05/12 12:47:13;;;;;;;3.20;1.80;;;18.60;93.20;;;;;;4956697;29;20049;-83
2021/05/12 12:49:41;;;;;;;;;;;18.40;94.50;;;;;;4959518;29;20032;-80
2021/05/12 12:52:12;;;;;;;4.38;1.88;;;18.60;95.30;;;;;;4960969;29;19898;-79
2021/05/12 12:57:24;;;;;;;4.82;1.80;;;17.90;98.00;;;;;;4981198;28;20050;-78
2021/05/12 13:00:04;;;;;;;4.32;1.90;;;18.10;98.80;;;;;;4979618;28;20027;-75
2021/05/12 13:02:31;;;;;;;5.15;2.10;;;18.00;99.80;;;;;;4962162;28;20524;-75
2021/05/12 13:05:13;;;;;;;3.72;2.22;;;17.10;99.90;;;;;;4976937;28;20022;-83